Time;durP1;ratioP1;P1;durP2;ratioP2;P2;SDS_P1;SDS_P2;PMS_P1;PMS_P2;Temp;Humidity;BMP_temperature;BMP_pressure;BME280_temperature;BME280_humidity;BME280_pressure;Samples;Min_cycle;Max_cycle;Signal;HPM_P1;HPM_P2
2023/11/04 00:00:40;;;;;;;5.53;2.35;;;6.30;99.90;;;;;;5136279;27;20248;-60
2023/11/04 00:03:07;;;;;;;2.70;1.77;;;6.30;99.90;;;;;;5135566;27;20708;-61
2023/11/04 00:05:33;;;;;;;2.58;1.50;;;6.30;99.90;;;;;;5136251;27;20222;-61
2023/11/04 00:08:01;;;;;;;5.38;2.50;;;6.20;99.90;;;;;;5135408;27;20644;-61
2023/11/04 00:10:28;;;;;;;6.75;2.08;;;6.20;99.90;;;;;;5135193;27;20210;-61
2023/11/04 00:12:55;;;;;;;4.20;2.05;;;6.20;99.90;;;;;;5135616;27;20223;-61
2023/11/04 00:15:22;;;;;;;5.47;2.47;;;6.20;99.90;;;;;;5136339;28;20206;-65
2023/11/04 00:17:48;;;;;;;4.68;2.13;;;6.20;99.90;;;;;;5135305;28;20219;-61
2023/11/04 00:20:15;;;;;;;7.72;1.85;;;6.20;99.90;;;;;;5134854;28;20199;-60
2023/11/04 00:22:42;;;;;;;6.05;2.08;;;6.20;99.90;;;;;;5135415;28;20218;-61
2023/11/04 00:25:10;;;;;;;11.68;1.63;;;6.20;99.90;;;;;;5134637;28;20699;-61
2023/11/04 00:27:37;;;;;;;2.90;2.60;;;6.10;99.90;;;;;;5136576;27;20199;-61
2023/11/04 00:30:05;;;;;;;4.28;2.15;;;6.10;99.90;;;;;;5139236;27;20203;-60
2023/11/04 00:32:32;;;;;;;5.72;1.73;;;6.10;99.90;;;;;;5139528;27;20288;-60
2023/11/04 00:34:58;;;;;;;4.97;1.85;;;6.10;99.90;;;;;;5139719;27;20203;-61
2023/11/04 00:37:25;;;;;;;7.45;2.00;;;6.00;99.90;;;;;;5139233;27;20230;-60
2023/11/04 00:39:52;;;;;;;3.28;1.52;;;6.00;99.90;;;;;;5138945;27;20199;-60
2023/11/04 00:42:20;;;;;;;2.58;1.70;;;6.00;99.90;;;;;;5138887;27;20215;-60
2023/11/04 00:44:47;;;;;;;4.85;1.95;;;6.00;99.90;;;;;;5140862;27;20199;-60
2023/11/04 00:47:14;;;;;;;4.13;1.95;;;6.00;99.90;;;;;;5141061;27;20202;-62
2023/11/04 00:49:40;;;;;;;3.75;1.75;;;6.10;99.90;;;;;;5142363;27;20203;-60
2023/11/04 00:52:09;;;;;;;5.07;1.67;;;6.10;99.90;;;;;;5143360;27;20233;-61
2023/11/04 00:54:35;;;;;;;4.80;1.30;;;6.20;99.90;;;;;;5147814;27;20230;-60
2023/11/04 00:57:02;;;;;;;2.38;1.70;;;6.20;99.90;;;;;;5152023;27;20230;-60
2023/11/04 00:59:30;;;;;;;4.82;2.20;;;6.20;99.90;;;;;;5150628;27;20201;-61
2023/11/04 01:01:57;;;;;;;4.85;1.50;;;6.20;99.90;;;;;;5138547;27;20230;-61
2023/11/04 01:04:24;;;;;;;4.13;1.73;;;6.20;99.90;;;;;;5138508;27;20198;-61
2023/11/04 01:06:50;;;;;;;4.20;1.75;;;6.10;99.90;;;;;;5138373;27;20199;-60
2023/11/04 01:09:17;;;;;;;4.28;1.83;;;6.10;99.90;;;;;;5139133;27;20203;-61
2023/11/04 01:11:44;;;;;;;4.07;1.45;;;6.10;99.90;;;;;;5138292;27;20262;-61
2023/11/04 01:14:11;;;;;;;3.55;2.45;;;6.10;99.90;;;;;;5138307;27;20205;-61
2023/11/04 01:16:39;;;;;;;6.20;2.45;;;6.20;99.90;;;;;;5138523;27;20690;-61
2023/11/04 01:19:06;;;;;;;9.27;1.80;;;6.20;99.90;;;;;;5138168;27;20206;-61
2023/11/04 01:21:32;;;;;;;5.38;1.42;;;6.30;99.90;;;;;;5138699;27;20325;-61
2023/11/04 01:23:59;;;;;;;2.15;1.48;;;6.30;99.90;;;;;;5138544;27;20199;-60
2023/11/04 01:26:26;;;;;;;6.38;1.50;;;6.40;99.90;;;;;;5138719;27;20201;-60
2023/11/04 01:28:53;;;;;;;3.60;1.60;;;6.30;99.90;;;;;;5138137;27;20198;-61
2023/11/04 01:31:20;;;;;;;5.53;2.28;;;6.30;99.90;;;;;;5138328;27;20203;-60
2023/11/04 01:33:48;;;;;;;3.15;1.23;;;6.40;99.90;;;;;;5138001;27;20245;-60
2023/11/04 01:36:15;;;;;;;3.65;2.10;;;6.30;99.90;;;;;;5138457;27;20218;-68
2023/11/04 01:38:42;;;;;;;3.08;1.20;;;6.40;99.90;;;;;;5137509;27;20222;-62
2023/11/04 01:41:09;;;;;;;6.82;1.58;;;6.40;99.90;;;;;;5138132;27;20203;-59
2023/11/04 01:43:36;;;;;;;4.13;1.63;;;6.40;99.90;;;;;;5138058;27;20203;-60
2023/11/04 01:46:17;;;;;;;3.65;1.83;;;6.40;99.90;;;;;;5138503;27;20196;-61
2023/11/04 01:48:44;;;;;;;2.65;1.60;;;6.40;99.90;;;;;;5137978;27;20187;-61
2023/11/04 01:51:14;;;;;;;6.00;1.80;;;6.40;99.90;;;;;;5137671;27;20669;-62
2023/11/04 01:53:44;;;;;;;5.70;1.90;;;6.40;99.90;;;;;;5138214;27;20612;-61
2023/11/04 01:56:12;;;;;;;7.05;1.83;;;6.40;99.90;;;;;;5141268;27;20247;-62
2023/11/04 01:58:40;;;;;;;2.90;1.77;;;6.30;99.90;;;;;;5141569;27;20226;-60
2023/11/04 02:01:08;;;;;;;4.18;1.70;;;6.30;99.90;;;;;;5142506;27;20569;-61
2023/11/04 02:03:35;;;;;;;5.07;2.25;;;6.20;99.90;;;;;;5140513;27;20202;-60
2023/11/04 02:06:02;;;;;;;6.18;2.05;;;6.20;99.90;;;;;;5138969;27;20199;-62
2023/11/04 02:08:31;;;;;;;4.43;1.42;;;6.20;99.90;;;;;;5139704;27;20547;-59
2023/11/04 02:10:58;;;;;;;6.38;1.95;;;6.20;99.90;;;;;;5138903;27;20211;-60
2023/11/04 02:13:24;;;;;;;4.63;1.85;;;6.20;99.90;;;;;;5137986;27;20215;-60
2023/11/04 02:15:51;;;;;;;3.42;2.35;;;6.10;99.90;;;;;;5138743;27;20664;-60
2023/11/04 02:18:18;;;;;;;5.25;2.00;;;6.00;99.90;;;;;;5137210;27;20218;-61
2023/11/04 02:20:47;;;;;;;4.60;2.00;;;6.00;99.90;;;;;;5136599;27;20199;-61
2023/11/04 02:23:16;;;;;;;3.30;1.70;;;5.90;99.90;;;;;;5136778;27;20562;-61
2023/11/04 02:25:42;;;;;;;2.67;1.60;;;5.90;99.90;;;;;;5136479;27;20202;-60
2023/11/04 02:28:09;;;;;;;4.57;1.90;;;5.80;99.90;;;;;;5136583;27;20287;-60
2023/11/04 02:30:36;;;;;;;4.53;1.83;;;5.80;99.90;;;;;;5136954;27;20203;-61
2023/11/04 02:33:03;;;;;;;5.90;1.75;;;5.80;99.90;;;;;;5136185;27;20230;-61
2023/11/04 02:35:30;;;;;;;8.82;1.52;;;5.80;99.90;;;;;;5137921;27;20203;-60
2023/11/04 02:37:57;;;;;;;11.02;2.05;;;5.80;99.90;;;;;;5137457;27;20632;-59
2023/11/04 02:40:25;;;;;;;4.82;1.85;;;5.70;99.90;;;;;;5139966;27;20207;-60
2023/11/04 02:42:52;;;;;;;2.17;1.65;;;5.70;99.90;;;;;;5141843;27;20219;-60
2023/11/04 02:45:18;;;;;;;4.63;2.10;;;5.70;99.90;;;;;;5142154;27;20203;-60
2023/11/04 02:47:45;;;;;;;4.32;1.55;;;5.70;99.90;;;;;;5140485;27;20202;-60
2023/11/04 02:50:13;;;;;;;4.32;1.95;;;5.70;99.90;;;;;;5140406;27;20203;-60
2023/11/04 02:52:40;;;;;;;5.40;2.15;;;5.70;99.90;;;;;;5140541;27;20219;-60
2023/11/04 02:55:07;;;;;;;6.38;2.70;;;5.70;99.90;;;;;;5143267;27;20215;-60
2023/11/04 02:57:35;;;;;;;4.25;2.00;;;5.60;99.90;;;;;;5148281;27;20215;-60
2023/11/04 03:00:04;;;;;;;2.85;1.58;;;5.60;99.90;;;;;;5148532;27;20199;-60
2023/11/04 03:02:30;;;;;;;4.15;1.80;;;5.60;99.90;;;;;;5141415;27;20219;-60
2023/11/04 03:04:57;;;;;;;2.75;1.30;;;5.60;99.90;;;;;;5139752;27;20205;-60
2023/11/04 03:07:23;;;;;;;4.88;1.40;;;5.60;99.90;;;;;;5138314;27;20675;-60
2023/11/04 03:09:49;;;;;;;3.03;1.47;;;5.60;99.90;;;;;;5139873;27;20194;-60
2023/11/04 03:12:16;;;;;;;5.10;1.73;;;5.60;99.90;;;;;;5139487;27;20250;-60
2023/11/04 03:14:45;;;;;;;2.83;2.03;;;5.60;99.90;;;;;;5140121;27;20212;-60
2023/11/04 03:17:12;;;;;;;9.02;2.20;;;5.50;99.90;;;;;;5138726;27;20226;-61
2023/11/04 03:19:39;;;;;;;4.28;1.80;;;5.50;99.90;;;;;;5147435;27;20228;-60
2023/11/04 03:22:06;;;;;;;5.53;1.98;;;5.50;99.90;;;;;;5146171;27;20230;-60
2023/11/04 03:24:33;;;;;;;6.95;2.60;;;5.50;99.90;;;;;;5145002;27;20628;-60
2023/11/04 03:27:00;;;;;;;2.92;1.80;;;5.50;99.90;;;;;;5146118;27;20195;-60
2023/11/04 03:29:26;;;;;;;4.07;1.80;;;5.50;99.90;;;;;;5146686;27;20201;-60
2023/11/04 03:31:54;;;;;;;3.28;1.40;;;5.50;99.90;;;;;;5135070;27;20704;-61
2023/11/04 03:34:21;;;;;;;4.45;1.73;;;5.50;99.90;;;;;;5136281;27;20203;-62
2023/11/04 03:36:48;;;;;;;6.15;1.80;;;5.40;99.90;;;;;;5135729;27;20195;-61
2023/11/04 03:39:14;;;;;;;3.00;1.60;;;5.40;99.90;;;;;;5135366;27;20277;-61
2023/11/04 03:41:41;;;;;;;4.20;1.48;;;5.40;99.90;;;;;;5135266;27;20246;-61
2023/11/04 03:44:08;;;;;;;3.88;1.77;;;5.40;99.90;;;;;;5135173;27;20198;-61
2023/11/04 03:46:35;;;;;;;5.93;1.98;;;5.40;99.90;;;;;;5136041;27;20202;-61
2023/11/04 03:49:05;;;;;;;4.85;1.65;;;5.30;99.90;;;;;;5142036;27;20653;-60
2023/11/04 03:51:31;;;;;;;5.68;1.80;;;5.30;99.90;;;;;;5142097;27;20222;-60
2023/11/04 03:53:58;;;;;;;2.92;1.42;;;5.30;99.90;;;;;;5144189;27;20210;-61
2023/11/04 03:56:25;;;;;;;8.70;2.00;;;5.30;99.90;;;;;;5145030;27;20206;-60
2023/11/04 03:58:51;;;;;;;3.40;1.75;;;5.40;99.90;;;;;;5139930;27;20579;-60
2023/11/04 04:01:18;;;;;;;3.42;1.73;;;5.40;99.90;;;;;;5138756;27;20202;-60
2023/11/04 04:03:45;;;;;;;3.92;1.48;;;5.40;99.90;;;;;;5140645;27;20198;-61
2023/11/04 04:06:16;;;;;;;3.92;1.70;;;5.40;99.90;;;;;;5146188;27;20615;-61
2023/11/04 04:08:43;;;;;;;3.20;1.58;;;5.40;99.90;;;;;;5141698;27;20194;-61
2023/11/04 04:12:26;;;;;;;7.03;1.57;;;5.40;99.90;;;;;;5076218;27;1497684;-60
2023/11/04 04:14:53;;;;;;;6.90;1.60;;;5.40;99.90;;;;;;5114803;28;20196;-60
2023/11/04 04:17:20;;;;;;;3.65;1.70;;;5.40;99.90;;;;;;5112659;28;20200;-61
2023/11/04 04:19:47;;;;;;;2.47;1.50;;;5.40;99.90;;;;;;5113827;28;20260;-59
2023/11/04 04:22:14;;;;;;;2.72;1.60;;;5.40;99.90;;;;;;5113135;28;20224;-60
2023/11/04 04:24:41;;;;;;;3.63;1.50;;;5.40;99.90;;;;;;5118058;28;20203;-60
2023/11/04 04:27:07;;;;;;;4.95;1.60;;;5.40;99.90;;;;;;5119668;28;20195;-60
2023/11/04 04:29:35;;;;;;;4.35;1.55;;;5.40;99.90;;;;;;5117443;28;20199;-60
2023/11/04 04:32:02;;;;;;;5.15;1.42;;;5.40;99.90;;;;;;5111085;28;20224;-61
2023/11/04 04:34:29;;;;;;;2.63;1.58;;;5.40;99.90;;;;;;5110935;28;20200;-61
2023/11/04 04:36:57;;;;;;;5.10;1.92;;;5.30;99.90;;;;;;5111048;28;20200;-61
2023/11/04 04:39:23;;;;;;;2.80;1.75;;;5.30;99.90;;;;;;5110671;28;20253;-60
2023/11/04 04:41:50;;;;;;;2.25;1.52;;;5.20;99.90;;;;;;5110233;28;20211;-61
2023/11/04 04:44:17;;;;;;;3.65;1.60;;;5.30;99.90;;;;;;5110740;28;20203;-61
2023/11/04 04:46:46;;;;;;;4.70;1.60;;;5.20;99.90;;;;;;5110598;28;20208;-60
2023/11/04 04:49:13;;;;;;;2.53;2.15;;;5.20;99.90;;;;;;5110110;28;20710;-61
2023/11/04 04:51:39;;;;;;;5.97;1.85;;;5.10;99.90;;;;;;5110364;28;20223;-60
2023/11/04 04:54:06;;;;;;;5.78;1.95;;;5.10;99.90;;;;;;5110179;28;20586;-60
2023/11/04 04:56:33;;;;;;;3.90;1.85;;;5.10;99.90;;;;;;5110632;28;20204;-60
2023/11/04 04:58:59;;;;;;;2.05;1.48;;;5.10;99.90;;;;;;5110379;28;20210;-60
2023/11/04 05:01:26;;;;;;;4.30;1.50;;;5.00;99.90;;;;;;5110369;28;20210;-59
2023/11/04 05:03:54;;;;;;;3.13;2.05;;;5.00;99.90;;;;;;5110398;28;20204;-61
2023/11/04 05:06:21;;;;;;;3.33;1.75;;;5.00;99.90;;;;;;5110009;28;20204;-59
2023/11/04 05:08:47;;;;;;;1.75;1.27;;;5.00;99.90;;;;;;5110137;28;20203;-59
2023/11/04 05:11:14;;;;;;;3.22;1.58;;;5.00;99.90;;;;;;5110141;28;20610;-58
2023/11/04 05:13:41;;;;;;;4.60;1.73;;;5.00;99.90;;;;;;5110238;28;20210;-59
2023/11/04 05:16:09;;;;;;;2.90;1.58;;;5.00;99.90;;;;;;5111635;28;20204;-60
2023/11/04 05:18:35;;;;;;;2.00;1.42;;;5.10;99.90;;;;;;5111459;28;20204;-59
2023/11/04 05:21:04;;;;;;;3.70;1.83;;;5.10;99.90;;;;;;5109893;28;20203;-60
2023/11/04 05:23:31;;;;;;;2.00;1.70;;;5.10;99.90;;;;;;5097953;28;20220;-59
2023/11/04 05:25:58;;;;;;;4.57;2.08;;;5.10;99.90;;;;;;5097004;28;20200;-59
2023/11/04 05:28:26;;;;;;;3.17;2.03;;;5.10;99.90;;;;;;5096091;28;20683;-59
2023/11/04 05:30:53;;;;;;;6.65;4.00;;;5.20;99.90;;;;;;5096606;28;20320;-59
2023/11/04 05:33:20;;;;;;;4.18;1.80;;;5.20;99.90;;;;;;5096197;28;20228;-60
2023/11/04 05:35:47;;;;;;;3.30;1.55;;;5.30;99.90;;;;;;5096181;28;20203;-59
2023/11/04 05:38:15;;;;;;;2.28;1.40;;;5.30;99.90;;;;;;5097277;28;20212;-60
2023/11/04 05:40:41;;;;;;;2.50;1.73;;;5.40;99.90;;;;;;5099221;28;20206;-59
2023/11/04 05:43:08;;;;;;;3.65;1.98;;;5.50;99.90;;;;;;5098106;28;20543;-60
2023/11/04 05:45:35;;;;;;;6.55;1.95;;;5.50;99.90;;;;;;5096851;28;20200;-59
2023/11/04 05:48:02;;;;;;;3.80;1.70;;;5.50;99.90;;;;;;5096575;28;20207;-61
2023/11/04 05:50:29;;;;;;;2.45;1.80;;;5.60;99.90;;;;;;5098886;28;20204;-59
2023/11/04 05:52:55;;;;;;;4.50;1.98;;;5.60;99.90;;;;;;5096820;28;20250;-60
2023/11/04 05:55:24;;;;;;;3.22;1.90;;;5.60;99.90;;;;;;5099203;28;20211;-60
2023/11/04 05:57:51;;;;;;;2.70;2.05;;;5.60;99.90;;;;;;5100069;28;20208;-59
2023/11/04 06:00:18;;;;;;;3.15;1.80;;;5.60;99.90;;;;;;5098316;28;20196;-59
2023/11/04 06:02:45;;;;;;;5.70;2.30;;;5.60;99.90;;;;;;5102139;28;20250;-59
2023/11/04 06:05:13;;;;;;;3.60;2.15;;;5.60;99.90;;;;;;5098156;28;20246;-60
2023/11/04 06:07:40;;;;;;;4.70;2.00;;;5.60;99.90;;;;;;5098450;28;20582;-60
2023/11/04 06:10:08;;;;;;;2.13;1.92;;;5.60;99.90;;;;;;5098778;28;20210;-61
2023/11/04 06:12:36;;;;;;;2.85;1.85;;;5.60;99.90;;;;;;5100406;28;20232;-59
2023/11/04 06:15:04;;;;;;;6.70;2.55;;;5.70;99.90;;;;;;5098356;28;20559;-59
2023/11/04 06:17:31;;;;;;;4.95;2.00;;;5.70;99.90;;;;;;5095845;28;20201;-60
2023/11/04 06:19:58;;;;;;;3.28;1.70;;;5.70;99.90;;;;;;5095666;28;20208;-60
2023/11/04 06:22:25;;;;;;;3.90;1.98;;;5.80;99.90;;;;;;5095532;28;20223;-60
2023/11/04 06:24:52;;;;;;;2.05;1.70;;;5.90;99.90;;;;;;5095229;28;20203;-59
2023/11/04 06:27:19;;;;;;;2.30;2.10;;;6.00;99.90;;;;;;5095398;28;20564;-59
2023/11/04 06:29:47;;;;;;;4.13;1.60;;;6.00;99.90;;;;;;5095802;28;20219;-61
2023/11/04 06:32:14;;;;;;;2.83;2.05;;;6.00;99.90;;;;;;5095421;28;20228;-60
2023/11/04 06:34:41;;;;;;;2.40;1.85;;;6.10;99.90;;;;;;5094575;28;20201;-60
2023/11/04 06:37:08;;;;;;;2.60;2.40;;;6.10;99.90;;;;;;5096225;28;20200;-60
2023/11/04 06:39:35;;;;;;;3.40;1.80;;;6.10;99.90;;;;;;5096808;28;20202;-60
2023/11/04 06:42:02;;;;;;;2.65;2.10;;;6.20;99.90;;;;;;5096568;28;20216;-61
2023/11/04 06:44:28;;;;;;;6.50;1.80;;;6.20;99.90;;;;;;5096763;28;20204;-59
2023/11/04 06:46:56;;;;;;;3.05;1.80;;;6.20;99.90;;;;;;5096505;28;20204;-60
2023/11/04 06:49:23;;;;;;;4.05;1.67;;;6.20;99.90;;;;;;5095579;28;20231;-60
2023/11/04 06:51:50;;;;;;;3.13;2.20;;;6.30;99.90;;;;;;5095518;28;20229;-60
2023/11/04 06:54:17;;;;;;;2.92;2.05;;;6.30;99.90;;;;;;5095165;28;20200;-60
2023/11/04 06:56:43;;;;;;;5.00;1.75;;;6.40;99.90;;;;;;5096212;28;20201;-60
2023/11/04 06:59:10;;;;;;;4.43;1.80;;;6.50;99.90;;;;;;5095115;28;20214;-60
2023/11/04 07:01:37;;;;;;;2.78;1.67;;;6.70;99.90;;;;;;5095209;28;20721;-60
2023/11/04 07:04:06;;;;;;;2.70;1.70;;;6.80;99.90;;;;;;5096015;28;20196;-60
2023/11/04 07:06:33;;;;;;;2.67;1.73;;;7.00;99.90;;;;;;5095820;28;20283;-60
2023/11/04 07:09:00;;;;;;;3.53;1.70;;;7.10;99.90;;;;;;5096303;28;20208;-60
2023/11/04 07:11:27;;;;;;;2.40;1.95;;;7.10;99.90;;;;;;5095986;28;20314;-61
2023/11/04 07:13:54;;;;;;;2.97;1.58;;;7.20;99.90;;;;;;5096167;28;20196;-60
2023/11/04 07:16:20;;;;;;;2.13;1.60;;;7.20;99.90;;;;;;5098525;28;20258;-59
2023/11/04 07:18:47;;;;;;;2.30;1.50;;;7.30;99.90;;;;;;5097430;28;20208;-61
2023/11/04 07:21:15;;;;;;;2.35;1.50;;;7.40;99.90;;;;;;5095225;28;20673;-60
2023/11/04 07:23:42;;;;;;;4.65;1.90;;;7.40;99.90;;;;;;5094628;28;20205;-60
2023/11/04 07:26:09;;;;;;;3.47;1.63;;;7.50;99.90;;;;;;5096221;28;20200;-60
2023/11/04 07:28:36;;;;;;;2.92;1.80;;;7.70;99.90;;;;;;5095904;28;20200;-60
2023/11/04 07:31:03;;;;;;;1.50;1.40;;;7.70;99.90;;;;;;5096898;28;20317;-60
2023/11/04 07:33:30;;;;;;;2.90;1.75;;;7.90;99.90;;;;;;5096261;28;20224;-60
2023/11/04 07:35:56;;;;;;;3.10;1.60;;;8.00;99.90;;;;;;5096674;28;20623;-59
2023/11/04 07:38:25;;;;;;;2.40;1.48;;;8.20;99.90;;;;;;5102189;28;20228;-60
2023/11/04 07:40:51;;;;;;;5.60;1.70;;;8.40;99.90;;;;;;5102659;28;20215;-59
2023/11/04 07:43:18;;;;;;;2.55;1.65;;;8.50;99.90;;;;;;5103940;28;20225;-60
2023/11/04 07:45:45;;;;;;;1.80;1.40;;;8.60;99.90;;;;;;5104809;28;20207;-60
2023/11/04 07:48:12;;;;;;;3.75;1.50;;;8.60;99.90;;;;;;5105726;28;20223;-60
2023/11/04 07:50:39;;;;;;;5.50;1.55;;;8.70;99.90;;;;;;5108247;28;20263;-61
2023/11/04 07:53:06;;;;;;;5.00;1.48;;;8.70;99.90;;;;;;5097493;28;20224;-61
2023/11/04 07:55:34;;;;;;;2.40;1.50;;;8.80;99.90;;;;;;5095455;28;20196;-60
2023/11/04 07:58:00;;;;;;;4.10;1.75;;;8.80;99.90;;;;;;5094927;28;20207;-61
2023/11/04 08:00:28;;;;;;;5.32;1.30;;;8.90;99.90;;;;;;5095449;28;20197;-60
2023/11/04 08:02:55;;;;;;;3.05;1.45;;;9.00;99.90;;;;;;5097867;28;20216;-61
2023/11/04 08:05:21;;;;;;;2.53;1.90;;;9.00;99.90;;;;;;5096852;28;20581;-61
2023/11/04 08:07:48;;;;;;;1.95;1.30;;;9.10;99.90;;;;;;5095604;28;20201;-61
2023/11/04 08:10:16;;;;;;;2.33;1.77;;;9.20;99.90;;;;;;5096349;28;20207;-61
2023/11/04 08:12:44;;;;;;;3.65;1.70;;;9.20;99.90;;;;;;5096585;28;20315;-60
2023/11/04 08:15:12;;;;;;;3.00;1.40;;;9.40;99.90;;;;;;5095389;28;20211;-61
2023/11/04 08:17:39;;;;;;;2.10;1.67;;;9.40;99.90;;;;;;5095238;28;20446;-61
2023/11/04 08:20:09;;;;;;;2.10;1.63;;;9.40;99.90;;;;;;5096090;28;20438;-61
2023/11/04 08:22:37;;;;;;;2.55;1.70;;;9.40;99.90;;;;;;5096934;28;20216;-60
2023/11/04 08:25:06;;;;;;;4.50;1.55;;;9.40;99.90;;;;;;5097504;28;20578;-62
2023/11/04 08:27:32;;;;;;;1.42;1.10;;;9.40;99.90;;;;;;5098506;28;20240;-60
2023/11/04 08:30:01;;;;;;;2.17;1.50;;;9.40;99.90;;;;;;5097924;28;20208;-61
2023/11/04 08:32:28;;;;;;;1.90;1.67;;;9.50;99.90;;;;;;5098438;28;20256;-62
2023/11/04 08:34:58;;;;;;;2.95;1.40;;;9.40;99.90;;;;;;5098311;28;20263;-60
2023/11/04 08:37:25;;;;;;;2.50;1.63;;;9.40;99.90;;;;;;5099864;28;20200;-61
2023/11/04 08:39:52;;;;;;;2.65;1.70;;;9.40;99.90;;;;;;5097542;28;20673;-60
2023/11/04 08:42:19;;;;;;;2.70;1.60;;;9.40;99.90;;;;;;5096980;28;20220;-60
2023/11/04 08:44:46;;;;;;;2.08;1.58;;;9.40;99.90;;;;;;5095309;28;20573;-61
2023/11/04 08:47:14;;;;;;;3.67;1.95;;;9.30;99.90;;;;;;5095413;28;20716;-60
2023/11/04 08:49:41;;;;;;;1.95;1.80;;;9.30;99.90;;;;;;5096245;28;20710;-61
2023/11/04 08:52:08;;;;;;;2.40;1.60;;;9.20;99.90;;;;;;5097115;28;20221;-61
2023/11/04 08:54:35;;;;;;;2.40;1.80;;;9.20;99.90;;;;;;5094793;28;20200;-61
2023/11/04 08:57:02;;;;;;;1.30;1.20;;;9.20;99.90;;;;;;5096423;28;20680;-60
2023/11/04 08:59:29;;;;;;;3.05;1.60;;;9.20;99.90;;;;;;5102757;28;20215;-59
2023/11/04 09:01:56;;;;;;;2.50;1.45;;;9.10;99.90;;;;;;5103464;28;20216;-59
2023/11/04 09:04:24;;;;;;;2.42;1.95;;;9.10;99.90;;;;;;5106427;28;20202;-61
2023/11/04 09:06:50;;;;;;;4.45;2.20;;;9.00;99.90;;;;;;5106619;28;20287;-61
2023/11/04 09:09:19;;;;;;;2.70;2.00;;;9.00;99.90;;;;;;5104507;28;20200;-61
2023/11/04 09:11:45;;;;;;;2.10;1.50;;;9.00;99.90;;;;;;5103503;28;20315;-60
2023/11/04 09:14:12;;;;;;;2.90;1.60;;;9.10;99.90;;;;;;5101361;28;20658;-61
2023/11/04 09:16:39;;;;;;;1.50;1.40;;;9.30;99.90;;;;;;5101706;28;20211;-60
2023/11/04 09:19:05;;;;;;;1.92;1.17;;;9.40;99.90;;;;;;5099174;28;20442;-60
2023/11/04 09:21:35;;;;;;;2.20;1.73;;;9.50;99.90;;;;;;5098464;28;20603;-60
2023/11/04 09:24:01;;;;;;;2.00;1.80;;;9.70;99.90;;;;;;5098992;28;20474;-61
2023/11/04 09:26:28;;;;;;;1.50;1.40;;;9.80;99.90;;;;;;5098948;28;20441;-60
2023/11/04 09:28:56;;;;;;;2.80;2.23;;;9.90;99.90;;;;;;5100139;28;20196;-62
2023/11/04 09:31:23;;;;;;;2.40;1.60;;;10.00;99.90;;;;;;5101596;28;20468;-60
2023/11/04 09:33:52;;;;;;;2.20;1.42;;;10.00;99.90;;;;;;5101700;28;20482;-60
2023/11/04 09:36:19;;;;;;;1.43;1.23;;;10.00;99.90;;;;;;5102957;28;20200;-60
2023/11/04 09:38:47;;;;;;;1.43;1.30;;;10.00;99.90;;;;;;5099926;28;20537;-60
2023/11/04 09:41:14;;;;;;;1.77;1.50;;;10.00;99.90;;;;;;5099362;28;20443;-60
2023/11/04 09:43:42;;;;;;;1.43;1.17;;;10.00;99.90;;;;;;5100239;28;20963;-59
2023/11/04 09:46:09;;;;;;;1.80;1.70;;;10.10;99.90;;;;;;5100426;28;20452;-61
2023/11/04 09:48:37;;;;;;;1.50;1.40;;;10.20;99.90;;;;;;5099739;28;20533;-60
2023/11/04 09:51:13;;;;;;;1.70;1.40;;;10.30;99.90;;;;;;5101825;28;20464;-61
2023/11/04 09:53:51;;;;;;;1.40;1.20;;;10.40;99.90;;;;;;5101698;28;20553;-60
2023/11/04 09:56:19;;;;;;;1.90;1.70;;;10.50;99.90;;;;;;5101098;28;20433;-61
2023/11/04 09:58:46;;;;;;;2.67;1.30;;;10.50;99.90;;;;;;5102260;28;20442;-61
2023/11/04 10:01:13;;;;;;;1.40;1.30;;;10.60;99.90;;;;;;5101934;28;20457;-61
2023/11/04 10:03:39;;;;;;;1.27;1.17;;;10.70;99.90;;;;;;5100124;28;20438;-60
2023/11/04 10:06:07;;;;;;;2.00;1.27;;;10.80;99.90;;;;;;5099357;28;20443;-60
2023/11/04 10:08:34;;;;;;;2.40;1.37;;;10.90;99.90;;;;;;5100006;28;20443;-60
2023/11/04 10:11:00;;;;;;;1.93;1.30;;;11.00;99.90;;;;;;5098496;28;20462;-59
2023/11/04 10:13:28;;;;;;;3.67;1.33;;;11.20;99.90;;;;;;5098169;28;20573;-58
2023/11/04 10:15:55;;;;;;;2.70;1.30;;;11.30;99.90;;;;;;5098235;28;20897;-60
2023/11/04 10:18:23;;;;;;;3.43;1.50;;;11.40;99.90;;;;;;5098106;28;20442;-59
2023/11/04 10:20:50;;;;;;;1.50;1.03;;;11.50;99.90;;;;;;5097466;28;20496;-61
2023/11/04 10:23:17;;;;;;;1.50;1.20;;;11.50;99.90;;;;;;5096464;28;20458;-61
2023/11/04 10:25:44;;;;;;;2.00;1.47;;;11.40;99.90;;;;;;5097354;28;20453;-61
2023/11/04 10:28:12;;;;;;;2.23;1.40;;;11.30;99.90;;;;;;5097577;28;20454;-60
2023/11/04 10:30:40;;;;;;;2.70;1.17;;;11.20;99.90;;;;;;5097272;28;20521;-60
2023/11/04 10:33:09;;;;;;;1.80;1.50;;;11.20;99.90;;;;;;5097772;28;20487;-61
2023/11/04 10:35:38;;;;;;;1.97;1.13;;;11.20;99.90;;;;;;5097449;28;20442;-60
2023/11/04 10:38:09;;;;;;;2.33;1.57;;;11.20;99.90;;;;;;5097178;28;20438;-60
2023/11/04 10:40:36;;;;;;;1.23;1.10;;;11.40;99.90;;;;;;5097675;28;20465;-60
2023/11/04 10:43:08;;;;;;;1.70;1.30;;;11.50;99.90;;;;;;5098238;28;20469;-61
2023/11/04 10:45:41;;;;;;;1.33;1.20;;;11.60;99.70;;;;;;5098667;28;20419;-60
2023/11/04 10:48:15;;;;;;;2.27;1.20;;;11.70;99.40;;;;;;5097294;28;20483;-60
2023/11/04 10:50:44;;;;;;;4.30;1.60;;;11.80;99.10;;;;;;5099978;28;20422;-61
2023/11/04 10:53:19;;;;;;;1.13;0.93;;;11.90;98.70;;;;;;5099347;28;20486;-60
2023/11/04 10:55:54;;;;;;;1.67;1.17;;;12.00;98.40;;;;;;5099338;28;20433;-61
2023/11/04 10:58:26;;;;;;;1.87;1.20;;;12.00;98.00;;;;;;5099668;28;20430;-60
2023/11/04 11:00:54;;;;;;;4.23;1.50;;;12.00;97.70;;;;;;5102251;28;20422;-60
2023/11/04 11:03:23;;;;;;;1.10;1.00;;;11.90;97.50;;;;;;5101267;28;20458;-61
2023/11/04 11:05:51;;;;;;;1.10;0.90;;;11.90;97.40;;;;;;5102619;28;20450;-61
2023/11/04 11:08:19;;;;;;;2.00;1.20;;;11.90;97.20;;;;;;5102652;28;20492;-62
2023/11/04 11:10:50;;;;;;;2.00;1.40;;;11.90;97.00;;;;;;5102996;28;20438;-61
2023/11/04 11:13:21;;;;;;;1.20;1.00;;;12.00;96.80;;;;;;5102815;28;20483;-61
2023/11/04 11:15:49;;;;;;;3.40;1.60;;;12.00;96.60;;;;;;5102772;28;20427;-61
2023/11/04 11:18:27;;;;;;;1.60;1.30;;;12.10;96.40;;;;;;5105553;28;20480;-61
2023/11/04 11:20:54;;;;;;;4.30;3.30;;;12.20;96.10;;;;;;5105466;28;20427;-61
2023/11/04 11:23:28;;;;;;;4.40;1.50;;;12.20;95.90;;;;;;5105737;28;20473;-60
2023/11/04 11:26:04;;;;;;;2.40;1.57;;;12.30;95.90;;;;;;5107423;28;20446;-60
2023/11/04 11:28:35;;;;;;;1.30;1.10;;;12.30;95.40;;;;;;5106949;28;20430;-60
2023/11/04 11:31:02;;;;;;;1.40;1.10;;;12.40;95.30;;;;;;5101669;28;20430;-61
2023/11/04 11:33:31;;;;;;;2.23;0.90;;;12.40;94.80;;;;;;5100455;28;20514;-60
2023/11/04 11:35:59;;;;;;;1.20;1.10;;;12.60;94.40;;;;;;5099721;28;20507;-61
2023/11/04 11:38:26;;;;;;;1.40;0.90;;;12.70;93.80;;;;;;5100248;28;20453;-61
2023/11/04 11:40:53;;;;;;;1.30;0.97;;;12.80;93.30;;;;;;5100196;28;20439;-60
2023/11/04 11:43:20;;;;;;;1.70;1.13;;;12.90;92.40;;;;;;5099938;28;20454;-61
2023/11/04 11:45:47;;;;;;;1.20;0.80;;;12.80;92.00;;;;;;5103763;28;20439;-61
2023/11/04 11:48:14;;;;;;;1.20;0.90;;;12.80;92.00;;;;;;5100616;28;20476;-61
2023/11/04 11:50:43;;;;;;;1.37;1.20;;;12.80;91.90;;;;;;5099499;28;20453;-61
2023/11/04 11:53:10;;;;;;;3.23;1.00;;;12.80;91.60;;;;;;5101006;28;20483;-60
2023/11/04 11:55:38;;;;;;;1.17;0.73;;;12.90;91.40;;;;;;5101458;28;20496;-61
2023/11/04 11:58:05;;;;;;;1.47;1.00;;;12.90;91.10;;;;;;5099031;28;20442;-60
2023/11/04 12:00:32;;;;;;;2.40;1.20;;;12.90;90.80;;;;;;5099464;28;20445;-61
2023/11/04 12:02:59;;;;;;;1.63;1.00;;;12.80;90.60;;;;;;5095325;28;20499;-61
2023/11/04 12:05:27;;;;;;;1.57;1.30;;;12.70;90.50;;;;;;5094730;28;20438;-61
2023/11/04 12:07:55;;;;;;;1.77;1.23;;;12.60;90.60;;;;;;5095424;28;20442;-61
2023/11/04 12:10:23;;;;;;;2.87;1.30;;;12.60;90.80;;;;;;5096138;28;20801;-61
2023/11/04 12:12:50;;;;;;;2.00;0.80;;;12.60;90.80;;;;;;5094804;28;20497;-61
2023/11/04 12:15:17;;;;;;;1.40;1.17;;;12.70;90.60;;;;;;5095793;28;20437;-62
2023/11/04 12:17:43;;;;;;;1.50;1.40;;;12.80;90.40;;;;;;5095456;28;20446;-60
2023/11/04 12:20:11;;;;;;;1.00;0.90;;;12.80;90.30;;;;;;5095054;28;20450;-61
2023/11/04 12:22:38;;;;;;;3.87;1.00;;;12.80;90.10;;;;;;5094569;28;20532;-61
2023/11/04 12:25:08;;;;;;;2.60;1.10;;;12.70;90.10;;;;;;5095846;28;20449;-60
2023/11/04 12:27:45;;;;;;;1.73;1.20;;;12.60;90.20;;;;;;5095127;28;20446;-61
2023/11/04 12:30:15;;;;;;;1.73;1.33;;;12.40;90.40;;;;;;5095015;28;20445;-60
2023/11/04 12:32:42;;;;;;;1.77;1.30;;;12.30;90.80;;;;;;5096294;28;20462;-60
2023/11/04 12:35:10;;;;;;;1.93;1.20;;;12.20;91.10;;;;;;5100118;28;20445;-60
2023/11/04 12:37:36;;;;;;;2.23;1.40;;;12.10;91.40;;;;;;5099212;28;20529;-61
2023/11/04 12:40:04;;;;;;;1.83;1.53;;;12.10;91.70;;;;;;5098335;28;20950;-60
2023/11/04 12:42:32;;;;;;;3.83;1.23;;;12.10;91.90;;;;;;5099135;28;20497;-60
2023/11/04 12:44:59;;;;;;;2.57;1.33;;;12.00;92.00;;;;;;5100130;28;20442;-60
2023/11/04 12:47:26;;;;;;;1.20;1.07;;;12.00;92.10;;;;;;5099170;28;20927;-61
2023/11/04 12:49:53;;;;;;;1.40;1.30;;;12.00;92.40;;;;;;5099757;28;20454;-60
2023/11/04 12:52:20;;;;;;;4.03;1.20;;;12.00;92.50;;;;;;5101097;28;20458;-60
2023/11/04 12:54:48;;;;;;;1.27;1.17;;;12.00;92.50;;;;;;5099961;28;20482;-61
2023/11/04 12:57:15;;;;;;;1.67;1.00;;;12.00;92.50;;;;;;5099331;28;20458;-61